Time;durP1;ratioP1;P1;durP2;ratioP2;P2;SDS_P1;SDS_P2;PMS_P1;PMS_P2;Temp;Humidity;BMP_temperature;BMP_pressure;BME280_temperature;BME280_humidity;BME280_pressure;Samples;Min_cycle;Max_cycle;Signal;HPM_P1;HPM_P2
2021/09/09 00:02:15;;;;;;;21.98;17.58;;;;;;;;;;4319701;33;20573;-84
2021/09/09 00:04:46;;;;;;;24.90;18.60;;;;;;;;;;4333759;33;20613;-84
2021/09/09 00:07:25;;;;;;;25.42;18.58;;;;;;;;;;4332810;33;20163;-84
2021/09/09 00:09:50;;;;;;;23.50;17.62;;;;;;;;;;4332974;33;20151;-84
2021/09/09 00:12:23;;;;;;;24.85;18.23;;;;;;;;;;4332748;33;20182;-84
2021/09/09 00:14:48;;;;;;;23.73;17.98;;;;;;;;;;4332967;33;20558;-85
2021/09/09 00:17:14;;;;;;;23.75;17.65;;;;;;;;;;4332538;33;20188;-84
2021/09/09 00:19:39;;;;;;;24.80;17.58;;;;;;;;;;4332609;33;20144;-84
2021/09/09 00:22:04;;;;;;;22.37;17.42;;;;;;;;;;4318571;33;20160;-84
2021/09/09 00:24:30;;;;;;;21.83;17.98;;;;;;;;;;4332918;33;20156;-84
2021/09/09 00:26:55;;;;;;;22.37;17.10;;;;;;;;;;4332400;33;20471;-84
2021/09/09 00:29:23;;;;;;;23.52;18.30;;;;;;;;;;4319242;33;20268;-84
2021/09/09 00:32:04;;;;;;;22.58;18.10;;;;;;;;;;4332265;33;20166;-85
2021/09/09 00:34:32;;;;;;;26.98;18.75;;;;;;;;;;4319470;33;20151;-84
2021/09/09 00:37:06;;;;;;;25.95;18.87;;;;;;;;;;4318718;33;20160;-84
2021/09/09 00:39:34;;;;;;;24.02;17.95;;;;;;;;;;4319465;33;20151;-84
2021/09/09 00:41:59;;;;;;;33.53;19.98;;;;;;;;;;4332126;33;20174;-85
2021/09/09 00:44:26;;;;;;;25.98;18.42;;;;;;;;;;4333549;33;20546;-84
2021/09/09 00:47:08;;;;;;;28.98;19.55;;;;;;;;;;4318818;33;20215;-84
2021/09/09 00:49:41;;;;;;;27.77;21.08;;;;;;;;;;4315094;33;20679;-84
2021/09/09 00:52:16;;;;;;;26.70;19.87;;;;;;;;;;4318817;33;20569;-84
2021/09/09 00:54:44;;;;;;;28.02;21.58;;;;;;;;;;4332682;33;20127;-84
2021/09/09 00:57:10;;;;;;;26.60;19.87;;;;;;;;;;4332964;33;20152;-84
2021/09/09 00:59:41;;;;;;;27.92;20.23;;;;;;;;;;4332460;33;20144;-84
2021/09/09 01:02:10;;;;;;;29.15;20.67;;;;;;;;;;4332728;33;20604;-84
2021/09/09 01:04:38;;;;;;;28.33;21.25;;;;;;;;;;4318876;33;20246;-84
2021/09/09 01:07:03;;;;;;;27.35;19.58;;;;;;;;;;4332190;33;20171;-84
2021/09/09 01:09:29;;;;;;;28.10;20.33;;;;;;;;;;4332142;33;20473;-84
2021/09/09 01:11:56;;;;;;;30.55;21.33;;;;;;;;;;4331723;33;20143;-84
2021/09/09 01:14:25;;;;;;;28.95;21.37;;;;;;;;;;4318348;33;20168;-84
2021/09/09 01:16:53;;;;;;;27.15;20.60;;;;;;;;;;4331967;33;20132;-85
2021/09/09 01:19:18;;;;;;;30.65;21.33;;;;;;;;;;4332115;33;20202;-84
2021/09/09 01:21:44;;;;;;;27.55;20.48;;;;;;;;;;4332055;33;20608;-84
2021/09/09 01:24:09;;;;;;;27.08;20.35;;;;;;;;;;4332205;33;20136;-84
2021/09/09 01:26:48;;;;;;;29.80;20.88;;;;;;;;;;4331795;33;20159;-85
2021/09/09 01:29:13;;;;;;;30.40;21.83;;;;;;;;;;4318556;33;20624;-84
2021/09/09 01:31:39;;;;;;;30.48;21.37;;;;;;;;;;4332012;33;20162;-84
2021/09/09 01:34:06;;;;;;;30.62;22.42;;;;;;;;;;4332101;33;20132;-84
2021/09/09 01:36:32;;;;;;;28.98;22.20;;;;;;;;;;4331752;33;20250;-84
2021/09/09 01:39:00;;;;;;;33.15;22.45;;;;;;;;;;4331964;33;20178;-84
2021/09/09 01:41:26;;;;;;;32.08;22.52;;;;;;;;;;4323705;33;20156;-84
2021/09/09 01:43:54;;;;;;;33.42;22.42;;;;;;;;;;4341137;33;20140;-84
2021/09/09 01:46:22;;;;;;;32.92;22.37;;;;;;;;;;4332655;33;20132;-84
2021/09/09 01:48:47;;;;;;;28.67;21.33;;;;;;;;;;4317682;33;20214;-84
2021/09/09 01:51:16;;;;;;;30.00;21.70;;;;;;;;;;4331380;33;20162;-84
2021/09/09 01:53:44;;;;;;;30.08;22.52;;;;;;;;;;4332086;33;20165;-84
2021/09/09 01:56:09;;;;;;;29.95;23.00;;;;;;;;;;4331760;33;20159;-84
2021/09/09 01:58:34;;;;;;;30.60;23.05;;;;;;;;;;4331306;33;20129;-84
2021/09/09 02:01:07;;;;;;;32.97;23.85;;;;;;;;;;4331376;33;20146;-84
2021/09/09 02:03:32;;;;;;;34.78;23.80;;;;;;;;;;4331911;33;20203;-84
2021/09/09 02:05:58;;;;;;;34.63;25.62;;;;;;;;;;4331550;33;20195;-84
2021/09/09 02:08:23;;;;;;;34.73;23.87;;;;;;;;;;4331612;33;20144;-84
2021/09/09 02:10:51;;;;;;;34.60;25.10;;;;;;;;;;4317870;33;20268;-84
2021/09/09 02:13:19;;;;;;;34.47;23.27;;;;;;;;;;4331523;33;20629;-84
2021/09/09 02:15:47;;;;;;;37.85;26.25;;;;;;;;;;4331274;33;20140;-85
2021/09/09 02:18:15;;;;;;;34.90;24.58;;;;;;;;;;4317699;33;20155;-84
2021/09/09 02:20:40;;;;;;;37.17;26.48;;;;;;;;;;4331545;33;20214;-84
2021/09/09 02:23:06;;;;;;;38.03;27.17;;;;;;;;;;4331078;33;20124;-84
2021/09/09 02:25:31;;;;;;;33.22;24.92;;;;;;;;;;4330233;33;20148;-84
2021/09/09 02:28:02;;;;;;;37.20;26.80;;;;;;;;;;4331768;33;20128;-84
2021/09/09 02:30:27;;;;;;;38.53;26.20;;;;;;;;;;4332116;33;20136;-84
2021/09/09 02:32:55;;;;;;;41.13;28.05;;;;;;;;;;4330794;33;20691;-84
2021/09/09 02:35:23;;;;;;;36.60;25.95;;;;;;;;;;4317950;33;20156;-84
2021/09/09 02:37:49;;;;;;;41.80;29.67;;;;;;;;;;4317552;33;20178;-84
2021/09/09 02:40:15;;;;;;;33.92;25.88;;;;;;;;;;4317502;33;20497;-84
2021/09/09 02:42:41;;;;;;;37.17;24.83;;;;;;;;;;4330685;33;20167;-84
2021/09/09 02:45:12;;;;;;;39.08;26.33;;;;;;;;;;4331068;33;20135;-84
2021/09/09 02:47:43;;;;;;;38.20;26.25;;;;;;;;;;4317946;33;20223;-84
2021/09/09 02:50:21;;;;;;;36.40;25.33;;;;;;;;;;4332501;33;20181;-84
2021/09/09 02:52:49;;;;;;;41.92;29.00;;;;;;;;;;4320600;33;20593;-84
2021/09/09 02:55:15;;;;;;;40.97;29.60;;;;;;;;;;4333576;33;20163;-84
2021/09/09 02:57:50;;;;;;;40.95;28.62;;;;;;;;;;4320555;33;20172;-85
2021/09/09 03:00:22;;;;;;;40.70;26.62;;;;;;;;;;4334434;33;20507;-85
2021/09/09 03:03:33;;;;;;;39.05;27.87;;;;;;;;;;4336669;33;20135;-84
2021/09/09 03:05:36;;;;;;;39.10;27.40;;;;;;;;;;4323027;33;20245;-84
2021/09/09 03:08:23;;;;;;;36.80;25.95;;;;;;;;;;4320604;33;20175;-84
2021/09/09 03:10:55;;;;;;;41.13;28.02;;;;;;;;;;4334277;33;20198;-84
2021/09/09 03:13:27;;;;;;;39.45;29.05;;;;;;;;;;4334046;33;20162;-84
2021/09/09 03:18:56;;;;;;;41.58;27.77;;;;;;;;;;4333915;33;20174;-84
2021/09/09 03:21:31;;;;;;;40.40;27.98;;;;;;;;;;4333726;33;20143;-84
2021/09/09 03:23:57;;;;;;;42.78;29.25;;;;;;;;;;4334165;33;20604;-84
2021/09/09 03:26:25;;;;;;;36.90;27.48;;;;;;;;;;4333796;33;20144;-84
2021/09/09 03:28:59;;;;;;;40.45;28.12;;;;;;;;;;4333753;33;20530;-85
2021/09/09 03:31:27;;;;;;;40.60;28.67;;;;;;;;;;4333737;33;20216;-81
2021/09/09 03:34:21;;;;;;;40.88;27.67;;;;;;;;;;4319661;33;20160;-85
2021/09/09 03:36:48;;;;;;;38.38;28.15;;;;;;;;;;4322814;33;20172;-85
2021/09/09 03:39:16;;;;;;;46.10;29.90;;;;;;;;;;4320216;33;20218;-85
2021/09/09 03:41:48;;;;;;;39.55;28.27;;;;;;;;;;4333474;33;20147;-85
2021/09/09 03:44:29;;;;;;;41.40;30.10;;;;;;;;;;4333254;33;20263;-85
2021/09/09 03:47:09;;;;;;;44.28;29.50;;;;;;;;;;4320661;33;20179;-85
2021/09/09 03:49:36;;;;;;;40.95;28.55;;;;;;;;;;4319925;33;20241;-84
2021/09/09 03:52:23;;;;;;;42.90;29.60;;;;;;;;;;4319476;33;20241;-85
2021/09/09 03:54:51;;;;;;;41.25;28.98;;;;;;;;;;4333208;33;20151;-84
2021/09/09 03:57:19;;;;;;;42.60;28.15;;;;;;;;;;4333275;33;20144;-84
2021/09/09 03:59:44;;;;;;;44.17;31.20;;;;;;;;;;4319910;33;20163;-85
2021/09/09 04:02:12;;;;;;;41.78;29.48;;;;;;;;;;4332677;33;20213;-85
2021/09/09 04:04:40;;;;;;;45.72;31.00;;;;;;;;;;4333052;33;20616;-84
2021/09/09 04:07:05;;;;;;;42.30;29.90;;;;;;;;;;4318070;33;20176;-84
2021/09/09 04:09:40;;;;;;;48.87;31.95;;;;;;;;;;4319332;33;20160;-84
2021/09/09 04:12:06;;;;;;;45.75;31.23;;;;;;;;;;4332657;33;20131;-85
2021/09/09 04:14:37;;;;;;;47.25;32.03;;;;;;;;;;4332878;33;20132;-85
2021/09/09 04:17:03;;;;;;;42.13;30.35;;;;;;;;;;4319810;33;20558;-84
2021/09/09 04:19:37;;;;;;;45.42;31.00;;;;;;;;;;4332886;33;20124;-85
2021/09/09 04:22:07;;;;;;;43.30;29.67;;;;;;;;;;4319748;33;20154;-84
2021/09/09 04:24:33;;;;;;;45.22;32.45;;;;;;;;;;4332849;33;20538;-84
2021/09/09 04:26:59;;;;;;;46.92;32.97;;;;;;;;;;4332827;33;20222;-85
2021/09/09 04:29:26;;;;;;;46.40;32.25;;;;;;;;;;4336766;33;20194;-85
2021/09/09 04:32:23;;;;;;;48.97;32.97;;;;;;;;;;4337902;33;20136;-84
2021/09/09 04:34:51;;;;;;;45.88;31.67;;;;;;;;;;4337543;33;20549;-84
2021/09/09 04:37:16;;;;;;;50.08;32.97;;;;;;;;;;4323915;33;20184;-85
2021/09/09 04:40:12;;;;;;;;;;;;;;;;;;;;;
2021/09/09 04:42:40;;;;;;;46.15;31.77;;;;;;;;;;4337283;33;20503;-84
2021/09/09 04:45:17;;;;;;;47.25;33.55;;;;;;;;;;4334966;33;20600;-85
2021/09/09 04:47:50;;;;;;;50.38;32.22;;;;;;;;;;4336620;33;20183;-84
2021/09/09 04:50:15;;;;;;;44.85;31.00;;;;;;;;;;4329001;33;20178;-84
2021/09/09 04:52:41;;;;;;;50.38;35.30;;;;;;;;;;4344628;33;20151;-83
2021/09/09 04:55:15;;;;;;;51.30;33.47;;;;;;;;;;4338495;33;20468;-85
2021/09/09 04:57:51;;;;;;;55.08;33.08;;;;;;;;;;4337264;33;20226;-84
2021/09/09 05:00:21;;;;;;;42.85;30.88;;;;;;;;;;4321734;33;20163;-85
2021/09/09 05:02:46;;;;;;;47.67;31.58;;;;;;;;;;4334105;33;20175;-85
2021/09/09 05:05:12;;;;;;;47.53;32.58;;;;;;;;;;4331809;33;20512;-82
2021/09/09 05:07:38;;;;;;;46.55;31.83;;;;;;;;;;4333295;33;20183;-81
2021/09/09 05:10:03;;;;;;;44.08;31.17;;;;;;;;;;4319856;33;20195;-84
2021/09/09 05:12:29;;;;;;;44.50;31.85;;;;;;;;;;4333896;33;20174;-83
2021/09/09 05:14:54;;;;;;;47.85;32.10;;;;;;;;;;4319934;33;20211;-84
2021/09/09 05:17:19;;;;;;;43.35;30.23;;;;;;;;;;4319431;33;20160;-83
2021/09/09 05:19:45;;;;;;;42.92;31.30;;;;;;;;;;4331883;33;20215;-83
2021/09/09 05:22:10;;;;;;;47.72;32.60;;;;;;;;;;4319020;33;20221;-83
2021/09/09 05:24:39;;;;;;;48.47;30.80;;;;;;;;;;4331690;33;20557;-83
2021/09/09 05:27:04;;;;;;;43.67;30.83;;;;;;;;;;4331957;33;20136;-83
2021/09/09 05:29:30;;;;;;;42.40;30.23;;;;;;;;;;4330771;33;20278;-83
2021/09/09 05:31:55;;;;;;;44.40;29.98;;;;;;;;;;4331628;33;20213;-84
2021/09/09 05:34:20;;;;;;;44.80;31.17;;;;;;;;;;4331611;33;20143;-83
2021/09/09 05:36:51;;;;;;;48.85;30.88;;;;;;;;;;4331549;33;20143;-82
2021/09/09 05:39:17;;;;;;;53.85;31.95;;;;;;;;;;4318472;33;20167;-83
2021/09/09 05:41:42;;;;;;;63.60;32.17;;;;;;;;;;4332165;33;20239;-83
2021/09/09 05:44:10;;;;;;;45.85;28.60;;;;;;;;;;4331621;33;20159;-83
2021/09/09 05:46:36;;;;;;;43.83;30.77;;;;;;;;;;4331242;33;20144;-83
2021/09/09 05:49:01;;;;;;;45.12;31.45;;;;;;;;;;4317861;33;20171;-85
2021/09/09 05:51:26;;;;;;;45.65;32.38;;;;;;;;;;4317896;33;20631;-84
2021/09/09 05:53:51;;;;;;;49.55;32.85;;;;;;;;;;4331330;33;20155;-84
2021/09/09 05:56:17;;;;;;;51.05;31.95;;;;;;;;;;4331720;33;20580;-82
2021/09/09 05:58:42;;;;;;;46.17;31.58;;;;;;;;;;4331831;33;20139;-83
2021/09/09 06:01:07;;;;;;;47.08;30.67;;;;;;;;;;4331071;33;20135;-83
2021/09/09 06:03:34;;;;;;;50.95;31.70;;;;;;;;;;4331371;33;20202;-83
2021/09/09 06:06:04;;;;;;;49.63;32.63;;;;;;;;;;4331142;33;20144;-82
2021/09/09 06:08:32;;;;;;;48.03;30.83;;;;;;;;;;4331743;33;20144;-82
2021/09/09 06:11:01;;;;;;;42.78;31.27;;;;;;;;;;4318325;33;20233;-83
2021/09/09 06:13:27;;;;;;;47.35;33.33;;;;;;;;;;4331239;33;20148;-81
2021/09/09 06:15:52;;;;;;;43.33;31.40;;;;;;;;;;4317276;33;20598;-82
2021/09/09 06:18:17;;;;;;;46.13;32.00;;;;;;;;;;4317662;33;20252;-82
2021/09/09 06:20:43;;;;;;;41.83;30.02;;;;;;;;;;4330884;33;20189;-82
2021/09/09 06:23:11;;;;;;;40.90;29.75;;;;;;;;;;4330681;33;20136;-83
2021/09/09 06:25:36;;;;;;;45.80;30.92;;;;;;;;;;4331200;33;20140;-79
2021/09/09 06:28:02;;;;;;;43.15;29.92;;;;;;;;;;4330892;33;20207;-79
2021/09/09 06:30:27;;;;;;;43.42;29.92;;;;;;;;;;4330631;33;20143;-82
2021/09/09 06:32:55;;;;;;;41.95;29.92;;;;;;;;;;4330689;33;20173;-82
2021/09/09 06:35:34;;;;;;;48.67;29.70;;;;;;;;;;4331580;33;20190;-85
2021/09/09 06:38:18;;;;;;;42.15;30.33;;;;;;;;;;4332135;33;20140;-84
2021/09/09 06:40:43;;;;;;;42.20;30.08;;;;;;;;;;4319736;33;20496;-85
2021/09/09 06:43:09;;;;;;;43.17;31.15;;;;;;;;;;4332160;33;20518;-83
2021/09/09 06:45:34;;;;;;;42.72;30.95;;;;;;;;;;4332165;33;20148;-85
2021/09/09 06:48:00;;;;;;;44.17;31.02;;;;;;;;;;4332498;33;20175;-83
2021/09/09 06:50:25;;;;;;;44.50;30.92;;;;;;;;;;4330870;33;20136;-84
2021/09/09 06:52:50;;;;;;;41.63;29.00;;;;;;;;;;4331340;33;20140;-83
2021/09/09 06:55:16;;;;;;;44.70;30.95;;;;;;;;;;4317077;33;20164;-82
2021/09/09 06:57:41;;;;;;;38.95;28.35;;;;;;;;;;4329859;33;20175;-83
2021/09/09 07:00:07;;;;;;;41.60;29.40;;;;;;;;;;4330673;33;20195;-82
2021/09/09 07:02:35;;;;;;;39.92;28.17;;;;;;;;;;4330507;33;20191;-82
2021/09/09 07:05:00;;;;;;;42.85;29.40;;;;;;;;;;4339524;33;20140;-84
2021/09/09 07:07:25;;;;;;;38.45;27.48;;;;;;;;;;4346098;33;20447;-83
2021/09/09 07:09:50;;;;;;;39.55;28.08;;;;;;;;;;4345594;33;20136;-83
2021/09/09 07:12:16;;;;;;;38.53;25.60;;;;;;;;;;4345047;33;20197;-81
2021/09/09 07:14:47;;;;;;;38.47;25.00;;;;;;;;;;4345872;33;20128;-81
2021/09/09 07:17:12;;;;;;;35.85;26.40;;;;;;;;;;4332068;33;20488;-82
2021/09/09 07:19:38;;;;;;;35.72;26.92;;;;;;;;;;4345190;33;20178;-82
2021/09/09 07:22:03;;;;;;;36.95;25.50;;;;;;;;;;4331461;33;20229;-82
2021/09/09 07:24:29;;;;;;;35.15;25.67;;;;;;;;;;4345115;33;20151;-82
2021/09/09 07:26:54;;;;;;;37.75;26.55;;;;;;;;;;4346196;33;20132;-82
2021/09/09 07:29:19;;;;;;;36.40;25.37;;;;;;;;;;4346783;33;20243;-82
2021/09/09 07:31:45;;;;;;;43.15;28.00;;;;;;;;;;4345136;33;20156;-81
2021/09/09 07:34:11;;;;;;;36.13;26.87;;;;;;;;;;4344871;33;20139;-82
2021/09/09 07:36:36;;;;;;;33.90;23.98;;;;;;;;;;4345105;33;20128;-82
2021/09/09 07:39:02;;;;;;;32.38;24.12;;;;;;;;;;4344922;33;20135;-84
2021/09/09 07:41:27;;;;;;;35.75;25.58;;;;;;;;;;4331565;33;20182;-82
2021/09/09 07:43:52;;;;;;;34.88;24.23;;;;;;;;;;4331655;33;20198;-82
2021/09/09 07:46:18;;;;;;;34.77;25.10;;;;;;;;;;4345132;33;20140;-83
2021/09/09 07:48:43;;;;;;;33.17;23.42;;;;;;;;;;4347299;33;20294;-81
2021/09/09 07:51:24;;;;;;;31.00;23.23;;;;;;;;;;4347747;33;20150;-83
2021/09/09 07:54:02;;;;;;;;;;;;;;;;;;;;;
2021/09/09 07:56:33;;;;;;;33.72;23.15;;;;;;;;;;4348214;33;20190;-82
2021/09/09 07:59:02;;;;;;;30.17;21.67;;;;;;;;;;4347432;33;20142;-82
2021/09/09 08:01:28;;;;;;;31.98;21.05;;;;;;;;;;4347758;33;20166;-83
2021/09/09 08:03:53;;;;;;;28.75;20.42;;;;;;;;;;4333989;33;20198;-83
2021/09/09 08:06:22;;;;;;;31.15;20.05;;;;;;;;;;4347847;33;20166;-81
2021/09/09 08:08:47;;;;;;;26.92;19.75;;;;;;;;;;4347361;33;20138;-82
2021/09/09 08:11:13;;;;;;;28.15;19.52;;;;;;;;;;4347010;33;20656;-82
2021/09/09 08:13:38;;;;;;;30.90;22.15;;;;;;;;;;4333558;33;20532;-83
2021/09/09 08:16:04;;;;;;;33.05;22.52;;;;;;;;;;4347482;33;20198;-82
2021/09/09 08:18:29;;;;;;;27.70;19.92;;;;;;;;;;4347362;33;20161;-82
2021/09/09 08:20:54;;;;;;;28.80;20.33;;;;;;;;;;4347585;33;20166;-82
2021/09/09 08:23:21;;;;;;;29.12;20.35;;;;;;;;;;4347634;33;20163;-83
2021/09/09 08:25:46;;;;;;;26.25;19.25;;;;;;;;;;4347706;33;20173;-82
2021/09/09 08:28:11;;;;;;;28.17;19.25;;;;;;;;;;4334007;33;20573;-82
2021/09/09 08:30:42;;;;;;;27.40;18.48;;;;;;;;;;4347674;33;20132;-84
2021/09/09 08:33:08;;;;;;;23.60;16.58;;;;;;;;;;4347189;33;20151;-83
2021/09/09 08:35:33;;;;;;;25.58;18.00;;;;;;;;;;4347103;33;20170;-82
2021/09/09 08:38:07;;;;;;;25.52;16.52;;;;;;;;;;4347182;33;20139;-83
2021/09/09 08:40:42;;;;;;;27.77;17.80;;;;;;;;;;4347262;33;20536;-83
2021/09/09 08:43:09;;;;;;;26.15;19.15;;;;;;;;;;4347935;33;20505;-83
2021/09/09 08:45:38;;;;;;;26.37;19.17;;;;;;;;;;4346610;33;20197;-82
2021/09/09 08:48:12;;;;;;;27.58;19.45;;;;;;;;;;4346941;33;20218;-84
2021/09/09 08:50:43;;;;;;;23.08;17.12;;;;;;;;;;4347397;33;20140;-82
2021/09/09 08:53:09;;;;;;;29.50;19.70;;;;;;;;;;4346822;33;20221;-82
2021/09/09 08:55:34;;;;;;;27.08;18.52;;;;;;;;;;4346882;33;20139;-83
2021/09/09 08:58:08;;;;;;;27.27;19.37;;;;;;;;;;4346795;33;20134;-82
2021/09/09 09:00:33;;;;;;;24.40;17.95;;;;;;;;;;4333661;33;20229;-84
2021/09/09 09:02:59;;;;;;;28.45;19.48;;;;;;;;;;4346840;33;20191;-81
2021/09/09 09:05:25;;;;;;;27.95;19.80;;;;;;;;;;4346811;33;20140;-82
2021/09/09 09:08:01;;;;;;;28.40;19.23;;;;;;;;;;4346723;33;20139;-83
2021/09/09 09:10:27;;;;;;;28.55;19.60;;;;;;;;;;4346913;33;20143;-82
2021/09/09 09:12:52;;;;;;;24.70;18.55;;;;;;;;;;4346630;33;20573;-81
2021/09/09 09:15:19;;;;;;;29.10;18.77;;;;;;;;;;4346781;33;20158;-83
2021/09/09 09:17:54;;;;;;;24.75;18.48;;;;;;;;;;4333489;33;20261;-82
2021/09/09 09:20:22;;;;;;;24.60;18.75;;;;;;;;;;4321260;33;20167;-82
2021/09/09 09:22:51;;;;;;;25.08;18.58;;;;;;;;;;4346686;33;20162;-80
2021/09/09 09:25:19;;;;;;;27.15;18.25;;;;;;;;;;4332984;33;20590;-82
2021/09/09 09:27:51;;;;;;;25.60;18.08;;;;;;;;;;4346739;33;20177;-81
2021/09/09 09:30:16;;;;;;;28.52;19.40;;;;;;;;;;4346797;33;20182;-83
2021/09/09 09:32:51;;;;;;;26.87;19.08;;;;;;;;;;4346549;32;20562;-82
2021/09/09 09:35:18;;;;;;;27.37;18.90;;;;;;;;;;4346521;33;20190;-84
2021/09/09 09:38:00;;;;;;;;;;;;;;;;;;;;;
2021/09/09 09:40:31;;;;;;;25.37;19.08;;;;;;;;;;4344305;33;20167;-83
2021/09/09 09:42:57;;;;;;;25.42;18.37;;;;;;;;;;4346339;33;20525;-81
2021/09/09 09:45:22;;;;;;;24.70;18.27;;;;;;;;;;4346354;33;20150;-84
2021/09/09 09:47:48;;;;;;;29.60;20.25;;;;;;;;;;4345701;33;20601;-82
2021/09/09 09:50:22;;;;;;;25.27;17.90;;;;;;;;;;4346954;33;20186;-82
2021/09/09 09:52:47;;;;;;;25.70;18.45;;;;;;;;;;4346567;33;20458;-82
2021/09/09 09:55:13;;;;;;;29.00;18.75;;;;;;;;;;4332937;33;20223;-83
2021/09/09 09:57:52;;;;;;;25.67;18.62;;;;;;;;;;4346706;33;20191;-82
2021/09/09 10:00:17;;;;;;;27.52;19.52;;;;;;;;;;4346259;33;20189;-84
2021/09/09 10:02:42;;;;;;;30.58;20.02;;;;;;;;;;4346487;33;20160;-82
2021/09/09 10:05:08;;;;;;;27.50;21.33;;;;;;;;;;4332151;33;20175;-82
2021/09/09 10:07:33;;;;;;;26.48;19.62;;;;;;;;;;4346716;33;20174;-83
2021/09/09 10:09:59;;;;;;;24.55;18.25;;;;;;;;;;4345263;33;20151;-81
2021/09/09 10:12:26;;;;;;;29.02;17.33;;;;;;;;;;4345790;33;20199;-80
2021/09/09 10:14:51;;;;;;;25.83;18.08;;;;;;;;;;4346258;33;20490;-82
2021/09/09 10:17:18;;;;;;;28.38;18.98;;;;;;;;;;4345588;33;20139;-80
2021/09/09 10:19:43;;;;;;;22.92;16.80;;;;;;;;;;4345999;33;20175;-83
2021/09/09 10:22:13;;;;;;;28.60;19.23;;;;;;;;;;4345662;33;20135;-82
2021/09/09 10:24:39;;;;;;;30.12;17.17;;;;;;;;;;4345337;33;20198;-83
2021/09/09 10:27:24;;;;;;;26.25;18.52;;;;;;;;;;4345875;33;20627;-83
2021/09/09 10:29:53;;;;;;;22.48;15.93;;;;;;;;;;4345487;33;20139;-83
2021/09/09 10:32:37;;;;;;;22.73;16.45;;;;;;;;;;4332093;33;20243;-83
2021/09/09 10:35:18;;;;;;;25.95;18.08;;;;;;;;;;4345321;33;20523;-81
2021/09/09 10:37:44;;;;;;;23.42;16.17;;;;;;;;;;4345171;33;20139;-82
2021/09/09 10:40:27;;;;;;;25.15;17.30;;;;;;;;;;4331830;33;20167;-84
2021/09/09 10:42:59;;;;;;;23.00;16.00;;;;;;;;;;4345217;33;20136;-82
2021/09/09 10:45:42;;;;;;;24.67;16.83;;;;;;;;;;4345652;33;20562;-82
2021/09/09 10:48:19;;;;;;;27.20;16.40;;;;;;;;;;4345106;33;20170;-83
2021/09/09 10:50:59;;;;;;;24.98;16.45;;;;;;;;;;4345374;33;20127;-82
2021/09/09 10:53:34;;;;;;;22.85;16.27;;;;;;;;;;4345579;33;20178;-80
2021/09/09 10:56:10;;;;;;;23.62;14.77;;;;;;;;;;4345212;33;20143;-83
2021/09/09 10:58:35;;;;;;;21.95;16.05;;;;;;;;;;4345550;33;20165;-83
2021/09/09 11:01:05;;;;;;;22.50;16.05;;;;;;;;;;4345580;33;20136;-82
2021/09/09 11:03:40;;;;;;;19.37;14.07;;;;;;;;;;4345333;33;20628;-83
2021/09/09 11:06:08;;;;;;;21.33;13.95;;;;;;;;;;4332304;33;20158;-83
2021/09/09 11:08:59;;;;;;;21.52;15.27;;;;;;;;;;4345658;33;20187;-81
2021/09/09 11:11:53;;;;;;;20.08;15.07;;;;;;;;;;4345120;33;20356;-82
2021/09/09 11:14:22;;;;;;;18.92;14.57;;;;;;;;;;4329283;33;20193;-82
2021/09/09 11:16:47;;;;;;;20.70;15.93;;;;;;;;;;4345618;33;20162;-81
2021/09/09 11:19:12;;;;;;;22.58;15.20;;;;;;;;;;4332247;33;20159;-81
2021/09/09 11:21:38;;;;;;;22.67;15.13;;;;;;;;;;4347451;33;20174;-82
2021/09/09 11:24:05;;;;;;;19.87;13.00;;;;;;;;;;4335309;33;20367;-83
2021/09/09 11:26:30;;;;;;;21.42;14.82;;;;;;;;;;4335618;33;20524;-83
2021/09/09 11:28:59;;;;;;;20.20;14.38;;;;;;;;;;4349143;33;20140;-82
2021/09/09 11:31:34;;;;;;;20.73;15.88;;;;;;;;;;4347976;33;20179;-83
2021/09/09 11:34:04;;;;;;;19.95;14.18;;;;;;;;;;4348191;33;20173;-82
2021/09/09 11:36:36;;;;;;;23.15;15.57;;;;;;;;;;4347612;33;20202;-82
2021/09/09 11:39:05;;;;;;;20.75;15.05;;;;;;;;;;4347542;33;20139;-80
2021/09/09 11:41:33;;;;;;;21.35;16.08;;;;;;;;;;4347569;33;20189;-81
2021/09/09 11:44:09;;;;;;;19.92;15.95;;;;;;;;;;4334076;33;20190;-81
2021/09/09 11:46:36;;;;;;;19.17;15.25;;;;;;;;;;4348569;33;20178;-81
2021/09/09 11:49:03;;;;;;;21.52;15.90;;;;;;;;;;4347192;33;20155;-82
2021/09/09 11:51:38;;;;;;;22.20;15.65;;;;;;;;;;4347601;33;20166;-82
2021/09/09 11:54:05;;;;;;;20.08;15.68;;;;;;;;;;4347603;33;20460;-79
2021/09/09 11:56:30;;;;;;;26.25;16.58;;;;;;;;;;4347708;33;20615;-82
2021/09/09 11:59:01;;;;;;;21.85;16.60;;;;;;;;;;4348113;33;20202;-82
2021/09/09 12:01:46;;;;;;;22.27;17.15;;;;;;;;;;4348000;33;20139;-82
2021/09/09 12:04:13;;;;;;;23.05;16.27;;;;;;;;;;4347159;33;20164;-81
2021/09/09 12:06:41;;;;;;;23.92;17.75;;;;;;;;;;4347655;33;20139;-82
2021/09/09 12:09:07;;;;;;;28.67;19.55;;;;;;;;;;4347115;33;20147;-83
2021/09/09 12:11:35;;;;;;;27.83;19.17;;;;;;;;;;4347056;33;20177;-81
2021/09/09 12:14:17;;;;;;;24.58;19.30;;;;;;;;;;4333647;33;20502;-82
2021/09/09 12:16:43;;;;;;;27.90;19.52;;;;;;;;;;4346978;33;20151;-81
2021/09/09 12:19:10;;;;;;;26.02;19.98;;;;;;;;;;4333540;33;20186;-82
2021/09/09 12:21:36;;;;;;;24.67;16.45;;;;;;;;;;4333383;33;20190;-80
2021/09/09 12:24:12;;;;;;;15.68;10.40;;;;;;;;;;4334492;33;20159;-80
2021/09/09 12:26:39;;;;;;;13.88;10.35;;;;;;;;;;4347214;33;20139;-82
2021/09/09 12:29:20;;;;;;;11.43;8.32;;;;;;;;;;4333285;33;20208;-80
2021/09/09 12:31:45;;;;;;;19.48;12.80;;;;;;;;;;4347368;33;20157;-81
2021/09/09 12:34:18;;;;;;;13.68;11.25;;;;;;;;;;4346793;33;20133;-80
2021/09/09 12:36:47;;;;;;;15.90;11.82;;;;;;;;;;4333601;33;20194;-79
2021/09/09 12:39:13;;;;;;;16.33;11.65;;;;;;;;;;4347197;33;20197;-79
2021/09/09 12:41:45;;;;;;;16.95;12.40;;;;;;;;;;4347159;33;20472;-79
2021/09/09 12:44:12;;;;;;;15.32;12.88;;;;;;;;;;4347250;33;20135;-81
2021/09/09 12:46:42;;;;;;;17.70;13.23;;;;;;;;;;4346636;33;20156;-81
2021/09/09 12:49:10;;;;;;;19.45;13.13;;;;;;;;;;4346484;33;20541;-82
2021/09/09 12:51:37;;;;;;;17.27;12.00;;;;;;;;;;4346680;33;20197;-81
2021/09/09 12:54:02;;;;;;;15.68;11.52;;;;;;;;;;4347163;33;20135;-81
2021/09/09 12:56:27;;;;;;;16.92;11.93;;;;;;;;;;4346920;33;20166;-81
2021/09/09 12:58:53;;;;;;;15.38;10.57;;;;;;;;;;4346511;33;20144;-80
2021/09/09 13:01:18;;;;;;;17.45;12.57;;;;;;;;;;4346094;33;20159;-82
2021/09/09 13:03:43;;;;;;;13.98;10.88;;;;;;;;;;4347557;33;20478;-82
2021/09/09 13:06:10;;;;;;;13.13;10.07;;;;;;;;;;4347053;33;20174;-82
2021/09/09 13:08:35;;;;;;;14.07;10.20;;;;;;;;;;4346215;33;20204;-82
2021/09/09 13:11:01;;;;;;;15.45;9.30;;;;;;;;;;4333033;33;20160;-83
2021/09/09 13:13:27;;;;;;;12.63;9.82;;;;;;;;;;4332986;33;20218;-82
2021/09/09 13:15:52;;;;;;;15.30;11.27;;;;;;;;;;4346434;33;20140;-78
2021/09/09 13:18:18;;;;;;;16.37;11.10;;;;;;;;;;4346236;33;20190;-80
2021/09/09 13:20:43;;;;;;;20.95;11.70;;;;;;;;;;4345853;33;20642;-82
2021/09/09 13:23:11;;;;;;;9.77;8.00;;;;;;;;;;4346670;33;20131;-81
2021/09/09 13:25:37;;;;;;;10.65;7.70;;;;;;;;;;4346238;33;20203;-81
2021/09/09 13:28:04;;;;;;;11.20;7.20;;;;;;;;;;4346327;33;20135;-81
2021/09/09 13:30:29;;;;;;;14.48;7.78;;;;;;;;;;4346196;33;20552;-81
2021/09/09 13:32:54;;;;;;;11.88;6.72;;;;;;;;;;4346143;33;20166;-80
2021/09/09 13:35:22;;;;;;;9.20;4.40;;;;;;;;;;4346880;33;20558;-80
2021/09/09 13:37:48;;;;;;;7.62;3.53;;;;;;;;;;4346543;33;20185;-79
2021/09/09 13:40:14;;;;;;;7.85;3.28;;;;;;;;;;4333462;33;20335;-82
2021/09/09 13:42:39;;;;;;;6.25;2.72;;;;;;;;;;4346065;33;20147;-82
2021/09/09 13:45:10;;;;;;;5.53;2.78;;;;;;;;;;4345821;33;20481;-82
2021/09/09 13:47:36;;;;;;;5.20;2.78;;;;;;;;;;4346442;33;20572;-80
2021/09/09 13:50:17;;;;;;;6.65;3.47;;;;;;;;;;4346043;33;20163;-83
2021/09/09 13:52:51;;;;;;;7.37;3.75;;;;;;;;;;4346267;33;20210;-81
2021/09/09 13:55:17;;;;;;;9.85;5.00;;;;;;;;;;4332599;33;20155;-80
2021/09/09 13:57:42;;;;;;;5.87;3.15;;;;;;;;;;4345752;33;20505;-82
2021/09/09 14:00:09;;;;;;;6.18;3.15;;;;;;;;;;4345415;33;20127;-82
2021/09/09 14:02:34;;;;;;;7.72;3.55;;;;;;;;;;4345644;33;20202;-82
2021/09/09 14:05:00;;;;;;;7.40;3.92;;;;;;;;;;4345469;33;20259;-80
2021/09/09 14:07:27;;;;;;;9.48;4.05;;;;;;;;;;4345361;33;20135;-78
2021/09/09 14:09:52;;;;;;;7.93;4.20;;;;;;;;;;4345683;33;20135;-81
2021/09/09 14:12:17;;;;;;;11.48;4.28;;;;;;;;;;4345711;33;20562;-82
2021/09/09 14:14:43;;;;;;;8.38;4.00;;;;;;;;;;4345388;33;20533;-82
2021/09/09 14:17:08;;;;;;;12.03;4.47;;;;;;;;;;4346426;33;20182;-82
2021/09/09 14:19:33;;;;;;;8.90;4.30;;;;;;;;;;4345816;33;20527;-82
2021/09/09 14:21:58;;;;;;;10.93;5.27;;;;;;;;;;4345453;33;20644;-82
2021/09/09 14:24:24;;;;;;;12.30;5.60;;;;;;;;;;4332360;33;20183;-81
2021/09/09 14:26:51;;;;;;;11.60;5.70;;;;;;;;;;4345654;33;20170;-81
2021/09/09 14:29:18;;;;;;;17.00;7.45;;;;;;;;;;4345793;33;20509;-81
2021/09/09 14:31:44;;;;;;;12.55;6.85;;;;;;;;;;4345232;33;20247;-81
2021/09/09 14:34:09;;;;;;;16.10;7.37;;;;;;;;;;4332179;33;20168;-81